Time;durP1;ratioP1;P1;durP2;ratioP2;P2;SDS_P1;SDS_P2;PMS_P1;PMS_P2;Temp;Humidity;BMP_temperature;BMP_pressure;BME280_temperature;BME280_humidity;BME280_pressure;Samples;Min_cycle;Max_cycle;Signal;HPM_P1;HPM_P2
2022/11/18 00:01:32;;;;;;;14.27;7.65;;;-0.70;99.90;;;;;;5052851;28;20021;-66
2022/11/18 00:03:58;;;;;;;11.00;6.57;;;-0.60;99.90;;;;;;5052735;28;20027;-73
2022/11/18 00:06:26;;;;;;;9.85;6.93;;;-0.70;99.90;;;;;;5052840;28;20086;-68
2022/11/18 00:08:52;;;;;;;11.30;6.20;;;-0.60;99.90;;;;;;5052679;28;20062;-66
2022/11/18 00:14:21;;;;;;;13.00;5.95;;;-0.60;99.90;;;;;;5068366;28;20036;-73
2022/11/18 00:16:55;;;;;;;12.55;6.38;;;-0.60;99.90;;;;;;5071550;28;20025;-66
2022/11/18 00:19:23;;;;;;;9.55;6.00;;;-0.60;99.90;;;;;;5071341;28;20021;-73
2022/11/18 00:21:49;;;;;;;8.38;5.45;;;-0.60;99.90;;;;;;5072826;28;20390;-67
2022/11/18 00:24:15;;;;;;;12.07;6.72;;;-0.60;99.90;;;;;;5071304;28;20021;-73
2022/11/18 00:26:40;;;;;;;9.40;6.60;;;-0.60;99.90;;;;;;5071325;28;20047;-66
2022/11/18 00:29:08;;;;;;;9.35;6.38;;;-0.60;99.90;;;;;;5072411;28;20056;-67
2022/11/18 00:31:34;;;;;;;9.23;6.43;;;-0.60;99.90;;;;;;5071217;28;20021;-73
2022/11/18 00:33:59;;;;;;;11.88;6.80;;;-0.60;99.90;;;;;;5072468;28;20052;-73
2022/11/18 00:36:25;;;;;;;9.65;6.18;;;-0.60;99.90;;;;;;5055147;28;20021;-74
2022/11/18 00:38:50;;;;;;;7.80;5.78;;;-0.60;99.90;;;;;;5052435;28;20061;-73
2022/11/18 00:41:16;;;;;;;13.15;6.88;;;-0.70;99.90;;;;;;5052409;28;20044;-66
2022/11/18 00:43:42;;;;;;;9.98;6.22;;;-0.70;99.90;;;;;;5051287;28;20161;-74
2022/11/18 00:46:09;;;;;;;9.40;6.15;;;-0.70;99.90;;;;;;5055902;28;20025;-73
2022/11/18 00:48:36;;;;;;;12.35;6.78;;;-0.70;99.90;;;;;;5055784;28;20025;-66
2022/11/18 00:51:14;;;;;;;8.05;6.25;;;-0.70;99.90;;;;;;5054716;28;20390;-66
2022/11/18 00:53:41;;;;;;;9.40;5.93;;;-0.70;99.90;;;;;;5055913;28;20417;-73
2022/11/18 00:56:07;;;;;;;8.02;5.95;;;-0.70;99.90;;;;;;5055917;28;20474;-73
2022/11/18 00:58:33;;;;;;;8.43;6.20;;;-0.70;99.90;;;;;;5055887;28;20024;-66
2022/11/18 01:00:59;;;;;;;7.80;5.22;;;-0.70;99.90;;;;;;5055734;28;20029;-73
2022/11/18 01:03:26;;;;;;;9.85;6.30;;;-0.70;99.90;;;;;;5055633;28;20033;-73
2022/11/18 01:05:52;;;;;;;9.45;5.75;;;-0.70;99.90;;;;;;5055650;28;20025;-66
2022/11/18 01:08:19;;;;;;;10.40;6.00;;;-0.70;99.90;;;;;;5055538;28;20044;-67
2022/11/18 01:10:46;;;;;;;8.23;5.50;;;-0.70;99.90;;;;;;5055467;28;20475;-66
2022/11/18 01:13:20;;;;;;;9.48;6.07;;;-0.70;99.90;;;;;;5063781;28;20504;-73
2022/11/18 01:15:51;;;;;;;9.10;5.50;;;-0.70;99.90;;;;;;5074323;28;20017;-73
2022/11/18 01:18:19;;;;;;;8.18;5.50;;;-0.70;99.90;;;;;;5074407;28;20386;-67
2022/11/18 01:20:45;;;;;;;10.02;6.43;;;-0.70;99.90;;;;;;5074180;28;20035;-74
2022/11/18 01:23:12;;;;;;;9.77;6.30;;;-0.80;99.90;;;;;;5075534;28;20488;-67
2022/11/18 01:25:39;;;;;;;8.10;4.93;;;-0.80;99.90;;;;;;5074034;28;20028;-67
2022/11/18 01:28:05;;;;;;;6.72;5.30;;;-0.80;99.90;;;;;;5075315;28;20040;-66
2022/11/18 01:30:35;;;;;;;10.23;6.78;;;-0.80;99.90;;;;;;5075077;28;20078;-73
2022/11/18 01:33:02;;;;;;;7.88;4.80;;;-0.80;99.90;;;;;;5075409;28;20471;-73
2022/11/18 01:35:29;;;;;;;9.63;5.88;;;-0.80;99.90;;;;;;5065253;28;20036;-73
2022/11/18 01:37:54;;;;;;;8.85;5.78;;;-0.80;99.90;;;;;;5053808;28;20552;-73
2022/11/18 01:40:20;;;;;;;8.90;6.45;;;-0.80;99.90;;;;;;5053738;28;20072;-73
2022/11/18 01:42:45;;;;;;;9.05;5.85;;;-0.80;99.90;;;;;;5055052;28;20446;-67
2022/11/18 01:45:23;;;;;;;10.50;5.68;;;-0.80;99.90;;;;;;5055009;28;20028;-74
2022/11/18 01:48:01;;;;;;;9.00;6.20;;;-0.80;99.90;;;;;;5055024;28;20028;-73
2022/11/18 01:50:28;;;;;;;11.52;6.35;;;-0.80;99.90;;;;;;5054953;28;20386;-66
2022/11/18 01:53:01;;;;;;;11.38;6.80;;;-0.80;99.90;;;;;;5053685;28;20021;-67
2022/11/18 01:55:31;;;;;;;12.05;7.60;;;-0.80;99.90;;;;;;5054158;28;20036;-73
2022/11/18 01:58:14;;;;;;;11.00;6.70;;;-0.80;99.90;;;;;;5054622;28;20013;-66
2022/11/18 02:00:40;;;;;;;11.70;7.38;;;-0.80;99.90;;;;;;5054597;28;20017;-66
2022/11/18 02:03:07;;;;;;;16.27;7.78;;;-0.70;99.90;;;;;;5054726;28;20070;-72
2022/11/18 02:05:33;;;;;;;11.95;7.25;;;-0.70;99.90;;;;;;5054555;28;20025;-73
2022/11/18 02:08:00;;;;;;;13.55;8.32;;;-0.70;99.90;;;;;;5054620;28;20496;-66
2022/11/18 02:10:26;;;;;;;12.80;7.70;;;-0.70;99.90;;;;;;5054477;28;20033;-66
2022/11/18 02:12:53;;;;;;;12.02;8.90;;;-0.80;99.90;;;;;;5060423;28;20100;-67
2022/11/18 02:15:36;;;;;;;12.73;7.47;;;-0.80;99.90;;;;;;5074248;28;20051;-67
2022/11/18 02:18:45;;;;;;;10.32;6.47;;;-0.80;99.90;;;;;;5055602;28;20074;-73
2022/11/18 02:21:49;;;;;;;10.48;6.40;;;-0.80;99.90;;;;;;5052974;28;20032;-66
2022/11/18 02:24:39;;;;;;;14.18;7.40;;;-0.80;99.90;;;;;;5054256;28;20112;-73
2022/11/18 02:27:41;;;;;;;12.20;6.80;;;-0.80;99.90;;;;;;5054059;28;20107;-66
2022/11/18 02:30:10;;;;;;;10.77;7.32;;;-0.80;99.90;;;;;;5054067;28;20032;-74
2022/11/18 02:32:38;;;;;;;12.73;6.90;;;-0.80;99.90;;;;;;5054167;28;20013;-73
2022/11/18 02:35:17;;;;;;;12.60;7.53;;;-0.80;99.90;;;;;;5053918;28;20044;-67
2022/11/18 02:37:57;;;;;;;12.07;6.72;;;-0.80;99.90;;;;;;5054106;28;20021;-73
2022/11/18 02:40:42;;;;;;;10.23;7.25;;;-0.80;99.90;;;;;;5053845;28;20115;-66
2022/11/18 02:43:44;;;;;;;12.68;6.93;;;-0.80;99.90;;;;;;5053843;28;20379;-73
2022/11/18 02:46:14;;;;;;;14.40;7.17;;;-0.80;99.90;;;;;;5052509;28;20036;-73
2022/11/18 02:48:45;;;;;;;11.02;7.18;;;-0.90;99.90;;;;;;5053796;28;20060;-73
2022/11/18 02:51:13;;;;;;;12.85;7.05;;;-0.90;99.90;;;;;;5053717;28;20013;-66
2022/11/18 02:53:40;;;;;;;12.93;7.88;;;-0.80;99.90;;;;;;5053521;28;20028;-73
2022/11/18 02:56:08;;;;;;;11.13;7.55;;;-0.80;99.90;;;;;;5053616;28;20029;-74
2022/11/18 02:58:33;;;;;;;10.05;6.53;;;-0.70;99.90;;;;;;5053603;28;20028;-66
2022/11/18 03:01:00;;;;;;;12.88;7.65;;;-0.80;99.90;;;;;;5053544;28;20025;-73
2022/11/18 03:03:27;;;;;;;12.95;7.32;;;-0.80;99.90;;;;;;5053547;28;20036;-66
2022/11/18 03:06:27;;;;;;;12.70;8.10;;;-0.80;99.90;;;;;;5053417;28;20043;-73
2022/11/18 03:09:13;;;;;;;14.45;7.97;;;-0.80;99.90;;;;;;5051904;28;20494;-66
2022/11/18 03:11:45;;;;;;;13.95;7.97;;;-0.80;99.90;;;;;;5053394;28;20417;-66
2022/11/18 03:14:20;;;;;;;15.57;9.50;;;-0.80;99.90;;;;;;5070443;28;20031;-66
2022/11/18 03:17:18;;;;;;;17.17;8.57;;;-0.80;99.90;;;;;;5073327;28;20025;-66
2022/11/18 03:20:13;;;;;;;14.27;8.52;;;-0.90;99.90;;;;;;5073550;28;20025;-73
2022/11/18 03:22:52;;;;;;;13.00;8.68;;;-0.80;99.90;;;;;;5059933;28;20029;-73
2022/11/18 03:25:55;;;;;;;15.05;9.30;;;-0.80;99.90;;;;;;5053127;28;20478;-66
2022/11/18 03:28:39;;;;;;;18.85;8.88;;;-0.80;99.90;;;;;;5053114;28;20120;-67
2022/11/18 03:31:23;;;;;;;20.70;8.32;;;-0.80;99.90;;;;;;5053134;28;20017;-67
2022/11/18 03:33:55;;;;;;;14.70;9.38;;;-0.80;99.90;;;;;;5053296;28;20381;-73
2022/11/18 03:36:23;;;;;;;16.33;8.20;;;-0.90;99.90;;;;;;5051786;28;20109;-66
2022/11/18 03:38:57;;;;;;;14.63;9.27;;;-0.90;99.90;;;;;;5053211;28;20532;-66
2022/11/18 03:41:24;;;;;;;12.50;8.00;;;-0.90;99.90;;;;;;5052674;28;20021;-73
2022/11/18 03:43:59;;;;;;;13.13;7.75;;;-0.80;99.90;;;;;;5053098;28;20502;-73
2022/11/18 03:46:38;;;;;;;16.77;7.72;;;-0.90;99.90;;;;;;5052964;28;20036;-66
2022/11/18 03:49:09;;;;;;;16.05;8.05;;;-0.90;99.90;;;;;;5053144;28;20025;-66
2022/11/18 03:51:41;;;;;;;13.70;8.40;;;-0.80;99.90;;;;;;5052977;28;20021;-73
2022/11/18 03:54:16;;;;;;;15.05;8.63;;;-0.80;99.90;;;;;;5052937;28;20381;-73
2022/11/18 03:56:49;;;;;;;14.63;9.23;;;-0.80;99.90;;;;;;5051707;28;20076;-68
2022/11/18 03:59:17;;;;;;;17.00;9.07;;;-0.80;99.90;;;;;;5053116;28;20017;-66
2022/11/18 04:02:09;;;;;;;14.68;8.82;;;-0.80;99.90;;;;;;5052883;28;20104;-72
2022/11/18 04:04:35;;;;;;;19.80;11.13;;;-0.80;99.90;;;;;;5052836;28;20021;-73
2022/11/18 04:07:23;;;;;;;16.58;9.25;;;-0.70;99.90;;;;;;5052779;28;20036;-73
2022/11/18 04:10:14;;;;;;;20.63;10.15;;;-0.70;99.90;;;;;;5052871;28;20391;-66
2022/11/18 04:12:53;;;;;;;14.63;8.65;;;-0.80;99.90;;;;;;5057551;28;20146;-73
2022/11/18 04:15:19;;;;;;;17.13;8.23;;;-0.80;99.90;;;;;;5072774;28;20024;-67
2022/11/18 04:17:45;;;;;;;14.13;8.73;;;-0.90;99.90;;;;;;5071546;28;20025;-67
2022/11/18 04:20:19;;;;;;;16.92;10.07;;;-0.90;99.90;;;;;;5075110;28;20027;-73
2022/11/18 04:22:45;;;;;;;13.25;8.85;;;-0.90;99.90;;;;;;5076729;28;20078;-73
2022/11/18 04:25:11;;;;;;;16.95;9.05;;;-0.90;99.90;;;;;;5076531;28;20060;-73
2022/11/18 04:27:37;;;;;;;15.85;8.70;;;-0.90;99.90;;;;;;5076414;28;20037;-73
2022/11/18 04:30:04;;;;;;;13.88;8.63;;;-0.90;99.90;;;;;;5076441;28;20060;-67
2022/11/18 04:32:29;;;;;;;14.30;9.32;;;-0.90;99.90;;;;;;5076292;28;20447;-67
2022/11/18 04:34:55;;;;;;;17.73;9.20;;;-0.90;99.90;;;;;;5069968;28;20032;-66
2022/11/18 04:37:20;;;;;;;19.80;11.23;;;-0.90;99.90;;;;;;5056232;28;20478;-73
2022/11/18 04:39:46;;;;;;;17.73;9.00;;;-0.80;99.90;;;;;;5056441;28;20040;-73
2022/11/18 04:42:12;;;;;;;16.70;10.00;;;-0.90;99.90;;;;;;5056049;28;20099;-73
2022/11/18 04:44:37;;;;;;;16.13;9.13;;;-0.90;99.90;;;;;;5054978;28;20022;-72
2022/11/18 04:47:05;;;;;;;16.67;10.38;;;-0.90;99.90;;;;;;5055922;28;20394;-67
2022/11/18 04:49:31;;;;;;;16.83;9.43;;;-0.90;99.90;;;;;;5054568;28;20028;-67
2022/11/18 04:51:58;;;;;;;18.30;9.90;;;-1.00;99.90;;;;;;5056026;28;20025;-73
2022/11/18 04:54:24;;;;;;;23.25;11.02;;;-1.00;99.90;;;;;;5055800;28;20031;-66
2022/11/18 04:56:51;;;;;;;19.45;11.07;;;-1.00;99.90;;;;;;5055990;28;20024;-68
2022/11/18 04:59:18;;;;;;;17.75;10.00;;;-1.00;99.90;;;;;;5055688;28;20029;-72
2022/11/18 05:01:44;;;;;;;18.58;9.98;;;-1.00;99.90;;;;;;5055828;28;20055;-73
2022/11/18 05:04:19;;;;;;;20.52;9.85;;;-1.00;99.90;;;;;;5055805;28;20058;-73
2022/11/18 05:06:45;;;;;;;20.80;11.13;;;-1.00;99.90;;;;;;5055647;28;20044;-73
2022/11/18 05:09:11;;;;;;;20.35;10.70;;;-0.90;99.90;;;;;;5054437;28;20104;-66
2022/11/18 05:14:23;;;;;;;23.50;10.70;;;-0.90;99.90;;;;;;5052247;28;20442;-73
2022/11/18 05:16:49;;;;;;;23.52;11.77;;;-1.00;99.90;;;;;;5035697;28;20067;-66
2022/11/18 05:19:14;;;;;;;25.45;12.60;;;-1.00;99.90;;;;;;5034151;28;20383;-66
2022/11/18 05:21:40;;;;;;;31.55;14.35;;;-1.10;99.90;;;;;;5035708;28;20021;-66
2022/11/18 05:24:06;;;;;;;27.02;12.93;;;-1.10;99.90;;;;;;5035516;28;20040;-66
2022/11/18 05:26:31;;;;;;;34.95;15.07;;;-1.10;99.90;;;;;;5035454;28;20033;-67
2022/11/18 05:28:57;;;;;;;30.60;13.52;;;-1.10;99.90;;;;;;5035401;28;20034;-67
2022/11/18 05:31:22;;;;;;;31.45;14.25;;;-1.10;99.90;;;;;;5034970;28;20040;-67
2022/11/18 05:33:48;;;;;;;32.38;16.27;;;-1.20;99.90;;;;;;5035108;28;20102;-67
2022/11/18 05:36:16;;;;;;;34.83;15.27;;;-1.20;99.90;;;;;;5052526;28;20067;-66
2022/11/18 05:38:42;;;;;;;31.63;13.90;;;-1.20;99.90;;;;;;5053814;28;20027;-68
2022/11/18 05:41:08;;;;;;;30.63;14.38;;;-1.20;99.90;;;;;;5055046;28;20020;-66
2022/11/18 05:43:35;;;;;;;25.58;13.15;;;-1.10;99.90;;;;;;5055062;28;20049;-66
2022/11/18 05:46:01;;;;;;;27.88;12.68;;;-1.10;99.90;;;;;;5055092;28;20489;-66
2022/11/18 05:48:27;;;;;;;31.50;12.70;;;-1.20;99.90;;;;;;5054836;28;20445;-67
2022/11/18 05:50:54;;;;;;;32.08;13.50;;;-1.20;99.90;;;;;;5055000;28;20033;-72
2022/11/18 05:53:22;;;;;;;25.60;11.55;;;-1.30;99.90;;;;;;5054755;28;20029;-67
2022/11/18 05:55:57;;;;;;;22.67;11.13;;;-1.30;99.90;;;;;;5054715;28;20028;-73
2022/11/18 05:58:23;;;;;;;23.15;10.32;;;-1.40;99.90;;;;;;5054981;28;20025;-73
2022/11/18 06:00:53;;;;;;;22.75;10.95;;;-1.30;99.90;;;;;;5054783;28;20029;-73
2022/11/18 06:03:25;;;;;;;26.02;11.70;;;-1.30;99.90;;;;;;5053264;28;20421;-73
2022/11/18 06:05:55;;;;;;;20.58;10.05;;;-1.30;99.90;;;;;;5054597;28;20078;-66
2022/11/18 06:08:23;;;;;;;15.00;7.20;;;-1.30;99.90;;;;;;5054478;28;20437;-66
2022/11/18 06:10:49;;;;;;;19.85;8.52;;;-1.30;99.90;;;;;;5054565;28;20108;-73
2022/11/18 06:13:31;;;;;;;16.10;8.38;;;-1.30;99.90;;;;;;5054276;28;20021;-67
2022/11/18 06:15:56;;;;;;;24.10;9.15;;;-1.30;99.90;;;;;;5054534;28;20158;-72
2022/11/18 06:18:28;;;;;;;19.58;9.20;;;-1.40;99.90;;;;;;5046164;28;20473;-74
2022/11/18 06:20:58;;;;;;;20.45;10.15;;;-1.40;99.90;;;;;;5056417;28;20021;-74
2022/11/18 06:23:25;;;;;;;23.77;10.50;;;-1.40;99.90;;;;;;5071274;28;20025;-73
2022/11/18 06:25:52;;;;;;;22.17;10.50;;;-1.40;99.90;;;;;;5073264;28;20024;-73
2022/11/18 06:28:19;;;;;;;20.40;10.20;;;-1.30;99.90;;;;;;5065786;28;20389;-73
2022/11/18 06:30:44;;;;;;;23.08;11.60;;;-1.30;99.90;;;;;;5072439;28;20020;-73
2022/11/18 06:33:10;;;;;;;20.90;11.23;;;-1.30;99.90;;;;;;5071578;28;20025;-73
2022/11/18 06:35:35;;;;;;;21.50;10.25;;;-1.30;99.90;;;;;;5045568;28;20458;-73
2022/11/18 06:38:01;;;;;;;21.48;10.52;;;-1.30;99.90;;;;;;5063920;28;20025;-73
2022/11/18 06:40:27;;;;;;;20.80;10.55;;;-1.20;99.90;;;;;;5072487;28;20379;-66
2022/11/18 06:45:37;;;;;;;22.83;10.40;;;-1.20;99.90;;;;;;5051103;28;20410;-66
2022/11/18 06:48:03;;;;;;;19.00;9.48;;;-1.30;99.90;;;;;;5071323;28;20028;-66
2022/11/18 06:50:29;;;;;;;21.60;10.73;;;-1.20;99.90;;;;;;5072314;28;20517;-73
2022/11/18 06:52:58;;;;;;;20.65;10.48;;;-1.20;99.90;;;;;;5061762;28;20021;-73
2022/11/18 06:55:23;;;;;;;17.42;10.52;;;-1.20;99.90;;;;;;5072159;28;20036;-72
2022/11/18 06:57:49;;;;;;;19.70;9.20;;;-1.30;99.90;;;;;;5072611;28;20104;-73
2022/11/18 07:00:15;;;;;;;20.60;10.48;;;-1.30;99.90;;;;;;5071121;28;20032;-73
2022/11/18 07:02:41;;;;;;;23.98;10.85;;;-1.30;99.90;;;;;;5071612;28;20576;-74
2022/11/18 07:05:06;;;;;;;21.45;9.82;;;-1.30;99.90;;;;;;5072026;28;20052;-73
2022/11/18 07:07:35;;;;;;;22.40;10.77;;;-1.30;99.90;;;;;;5062172;28;20039;-74
2022/11/18 07:10:00;;;;;;;21.38;11.43;;;-1.30;99.90;;;;;;5072064;28;20116;-74
2022/11/18 07:12:26;;;;;;;20.67;11.38;;;-1.20;99.90;;;;;;5064677;28;20096;-74
2022/11/18 07:14:51;;;;;;;19.88;10.23;;;-1.20;99.90;;;;;;5061709;28;20116;-74
2022/11/18 07:17:17;;;;;;;22.15;11.10;;;-1.30;99.90;;;;;;5066215;28;20055;-74
2022/11/18 07:19:43;;;;;;;24.27;10.32;;;-1.20;99.90;;;;;;5058370;28;20033;-73
2022/11/18 07:22:08;;;;;;;21.33;10.75;;;-1.20;99.90;;;;;;5072091;28;20047;-67
2022/11/18 07:24:34;;;;;;;25.58;12.38;;;-1.30;99.90;;;;;;5071948;28;20371;-74
2022/11/18 07:27:00;;;;;;;20.15;10.02;;;-1.30;99.90;;;;;;5069164;28;20041;-67
2022/11/18 07:29:25;;;;;;;22.02;11.63;;;-1.30;99.90;;;;;;5071124;28;20040;-66
2022/11/18 07:31:51;;;;;;;16.75;9.43;;;-1.30;99.90;;;;;;5070908;28;20017;-66
2022/11/18 07:34:16;;;;;;;24.40;10.77;;;-1.40;99.90;;;;;;5071604;28;20024;-74
2022/11/18 07:36:42;;;;;;;22.42;11.07;;;-1.40;99.90;;;;;;5065598;28;20039;-67
2022/11/18 07:39:08;;;;;;;20.10;9.82;;;-1.40;99.90;;;;;;5070233;28;20029;-74
2022/11/18 07:41:34;;;;;;;24.73;12.32;;;-1.40;99.90;;;;;;5069387;28;20063;-74
2022/11/18 07:44:01;;;;;;;26.65;12.65;;;-1.40;99.90;;;;;;5068318;28;20101;-74
2022/11/18 07:46:33;;;;;;;24.13;12.77;;;-1.30;99.90;;;;;;5067493;28;20550;-74
2022/11/18 07:49:00;;;;;;;24.00;12.43;;;-1.30;99.90;;;;;;5068087;28;20378;-66
2022/11/18 07:51:28;;;;;;;26.40;12.93;;;-1.30;99.90;;;;;;5070598;28;20410;-74
2022/11/18 07:53:54;;;;;;;19.45;8.80;;;-1.40;99.90;;;;;;5071626;28;20071;-74
2022/11/18 07:56:21;;;;;;;23.08;12.82;;;-1.50;99.90;;;;;;5058742;28;20511;-74
2022/11/18 07:58:50;;;;;;;25.35;13.27;;;-1.40;99.90;;;;;;5053981;28;20432;-74
2022/11/18 08:01:18;;;;;;;30.70;14.57;;;-1.40;99.90;;;;;;5062615;28;20461;-74
2022/11/18 08:03:44;;;;;;;24.23;12.60;;;-1.40;99.90;;;;;;5068355;28;20052;-74
2022/11/18 08:06:11;;;;;;;29.63;13.57;;;-1.30;99.90;;;;;;5052692;28;20048;-74
2022/11/18 08:08:38;;;;;;;26.08;12.57;;;-1.40;99.90;;;;;;5073248;28;20089;-74
2022/11/18 08:11:06;;;;;;;25.00;13.02;;;-1.50;99.90;;;;;;5073933;28;20086;-73
2022/11/18 08:13:32;;;;;;;24.30;11.73;;;-1.40;99.90;;;;;;5052019;28;20025;-74
2022/11/18 08:15:58;;;;;;;20.90;10.52;;;-1.40;99.90;;;;;;5049291;28;20045;-74
2022/11/18 08:18:24;;;;;;;29.05;12.68;;;-1.50;99.90;;;;;;5048498;28;20482;-74
2022/11/18 08:20:50;;;;;;;23.77;13.35;;;-1.40;99.90;;;;;;5048002;28;20037;-73
2022/11/18 08:23:16;;;;;;;22.65;11.82;;;-1.40;99.90;;;;;;5048446;28;20022;-74
2022/11/18 08:25:43;;;;;;;26.08;14.32;;;-1.40;99.90;;;;;;5047703;28;20055;-74
2022/11/18 08:28:09;;;;;;;29.65;12.10;;;-1.40;99.90;;;;;;5048688;28;20025;-74
2022/11/18 08:30:35;;;;;;;28.30;13.38;;;-1.30;99.90;;;;;;5047546;28;20050;-74
2022/11/18 08:33:01;;;;;;;29.92;13.13;;;-1.30;99.90;;;;;;5044327;28;20484;-75
2022/11/18 08:35:28;;;;;;;25.45;12.73;;;-1.30;99.90;;;;;;5044896;28;20060;-75
2022/11/18 08:37:54;;;;;;;27.33;12.68;;;-1.30;99.90;;;;;;5051421;28;20017;-74
2022/11/18 08:40:20;;;;;;;32.55;13.30;;;-1.30;99.90;;;;;;5063035;28;20043;-74
2022/11/18 08:42:45;;;;;;;31.20;14.02;;;-1.30;99.90;;;;;;5074638;28;20052;-74
2022/11/18 08:45:11;;;;;;;28.17;13.68;;;-1.30;99.90;;;;;;5073680;28;20028;-66
2022/11/18 08:47:37;;;;;;;34.00;16.77;;;-1.30;99.90;;;;;;5075143;28;20040;-74
2022/11/18 08:50:05;;;;;;;34.70;15.57;;;-1.20;99.90;;;;;;5074732;28;20025;-66
2022/11/18 08:52:31;;;;;;;30.05;13.90;;;-1.30;99.90;;;;;;5074217;28;20048;-74
2022/11/18 08:54:56;;;;;;;28.90;13.57;;;-1.20;99.90;;;;;;5074818;28;20071;-67
2022/11/18 08:57:22;;;;;;;34.22;16.02;;;-1.30;99.90;;;;;;5072664;28;20043;-67
2022/11/18 08:59:47;;;;;;;30.50;13.07;;;-1.20;99.90;;;;;;5074465;28;20097;-66
2022/11/18 09:02:14;;;;;;;29.38;12.88;;;-1.30;99.90;;;;;;5061641;28;20103;-67
2022/11/18 09:04:40;;;;;;;47.42;18.42;;;-1.40;99.90;;;;;;5074324;28;20028;-74
2022/11/18 09:07:06;;;;;;;31.95;17.85;;;-1.40;99.90;;;;;;5053902;28;20078;-67
2022/11/18 09:09:32;;;;;;;34.83;18.25;;;-1.40;99.90;;;;;;5047208;28;20018;-66
2022/11/18 09:11:57;;;;;;;33.55;17.95;;;-1.40;99.90;;;;;;5052066;28;20021;-67
2022/11/18 09:14:23;;;;;;;27.25;14.00;;;-1.40;99.90;;;;;;5050593;28;20023;-67
2022/11/18 09:16:48;;;;;;;36.20;14.35;;;-1.50;99.90;;;;;;5044553;28;20478;-66
2022/11/18 09:19:15;;;;;;;26.60;12.98;;;-1.50;99.90;;;;;;5043604;28;20052;-66
2022/11/18 09:21:41;;;;;;;26.13;14.48;;;-1.60;99.90;;;;;;5052690;28;20108;-66
2022/11/18 09:24:07;;;;;;;25.45;13.95;;;-1.60;99.90;;;;;;5043605;28;20435;-66
2022/11/18 09:26:35;;;;;;;29.65;15.73;;;-1.60;99.90;;;;;;5046709;28;20041;-66
2022/11/18 09:29:00;;;;;;;25.30;12.82;;;-1.60;99.90;;;;;;5047796;28;20017;-74
2022/11/18 09:31:26;;;;;;;32.70;15.73;;;-1.60;99.90;;;;;;5049666;28;20041;-74
2022/11/18 09:33:52;;;;;;;34.80;16.45;;;-1.60;99.90;;;;;;5047391;28;20096;-74
2022/11/18 09:36:23;;;;;;;31.55;15.75;;;-1.60;99.90;;;;;;5044418;28;20041;-74
2022/11/18 09:38:49;;;;;;;28.73;13.82;;;-1.60;99.90;;;;;;5045718;28;20075;-74
2022/11/18 09:41:31;;;;;;;29.58;15.57;;;-1.60;99.90;;;;;;5046399;28;20042;-74
2022/11/18 09:44:23;;;;;;;24.33;11.10;;;-1.70;99.90;;;;;;5049989;28;20036;-67
2022/11/18 09:46:52;;;;;;;23.38;13.25;;;-1.80;99.90;;;;;;5044244;28;20120;-66
2022/11/18 09:49:25;;;;;;;32.67;15.27;;;-1.90;99.90;;;;;;5044141;28;20481;-74
2022/11/18 09:51:52;;;;;;;25.13;13.05;;;-1.80;99.90;;;;;;5046650;28;20029;-75
2022/11/18 09:54:22;;;;;;;24.73;10.52;;;-1.90;99.90;;;;;;5046905;28;20021;-75
2022/11/18 09:56:50;;;;;;;27.65;15.07;;;-2.00;99.90;;;;;;5047960;28;20045;-75
2022/11/18 09:59:19;;;;;;;23.15;10.82;;;-2.00;99.90;;;;;;5046073;28;20025;-74
2022/11/18 10:01:45;;;;;;;31.95;14.10;;;-2.10;99.90;;;;;;5049303;28;20043;-74
2022/11/18 10:04:19;;;;;;;34.50;14.57;;;-2.10;99.90;;;;;;5044631;28;20013;-75
2022/11/18 10:06:46;;;;;;;30.27;13.65;;;-2.10;99.90;;;;;;5050014;28;20048;-74
2022/11/18 10:09:38;;;;;;;19.38;9.15;;;-2.10;99.90;;;;;;5045326;28;20028;-74
2022/11/18 10:12:25;;;;;;;32.65;14.18;;;-2.10;99.90;;;;;;5046702;28;20036;-74
2022/11/18 10:15:18;;;;;;;25.63;14.38;;;-2.10;99.90;;;;;;5047711;28;20027;-75
2022/11/18 10:18:14;;;;;;;26.45;12.98;;;-2.10;99.90;;;;;;5065828;28;20166;-74
2022/11/18 10:21:11;;;;;;;33.03;15.15;;;-2.10;99.90;;;;;;5066192;28;20017;-75
2022/11/18 10:23:54;;;;;;;30.50;13.15;;;-2.20;99.90;;;;;;5073029;28;20109;-74
2022/11/18 10:26:40;;;;;;;28.77;14.00;;;-2.20;99.90;;;;;;5070274;28;20029;-66
2022/11/18 10:29:09;;;;;;;22.77;10.65;;;-2.30;99.90;;;;;;5071782;28;20029;-66
2022/11/18 10:31:51;;;;;;;25.40;14.35;;;-2.40;99.90;;;;;;5070219;28;20082;-66
2022/11/18 10:34:18;;;;;;;29.90;14.63;;;-2.30;99.90;;;;;;5072665;28;20051;-66
2022/11/18 10:36:56;;;;;;;29.65;12.50;;;-2.30;99.90;;;;;;5068933;28;20029;-74
2022/11/18 10:39:22;;;;;;;24.02;10.95;;;-2.30;99.90;;;;;;5072723;28;20548;-74
2022/11/18 10:42:00;;;;;;;29.42;13.40;;;-2.40;99.90;;;;;;5072175;28;20099;-75
2022/11/18 10:44:28;;;;;;;24.17;13.75;;;-2.40;99.90;;;;;;5072770;28;20525;-74
2022/11/18 10:46:54;;;;;;;26.38;12.63;;;-2.30;99.90;;;;;;5072717;28;20072;-74
2022/11/18 10:49:20;;;;;;;31.50;15.45;;;-2.30;99.90;;;;;;5065309;28;20403;-67
2022/11/18 10:52:02;;;;;;;30.85;13.02;;;-2.30;99.90;;;;;;5071389;28;20020;-75
2022/11/18 10:54:28;;;;;;;25.52;13.95;;;-2.20;99.90;;;;;;5072662;28;20355;-66
2022/11/18 10:56:56;;;;;;;29.38;15.05;;;-2.20;99.90;;;;;;5070634;28;20050;-66
2022/11/18 10:59:34;;;;;;;29.55;13.25;;;-2.20;99.90;;;;;;5071170;28;20100;-67
2022/11/18 11:02:15;;;;;;;30.27;13.80;;;-2.20;99.90;;;;;;5070822;28;20028;-67
2022/11/18 11:04:41;;;;;;;26.23;13.07;;;-2.10;99.90;;;;;;5072526;28;20029;-66
2022/11/18 11:07:31;;;;;;;27.13;13.13;;;-2.20;99.90;;;;;;5051199;28;20048;-67
2022/11/18 11:10:04;;;;;;;26.58;12.73;;;-2.20;99.90;;;;;;5070162;28;20078;-68
2022/11/18 11:12:45;;;;;;;33.85;14.07;;;-2.20;99.90;;;;;;5064735;28;20082;-66
2022/11/18 11:15:31;;;;;;;31.42;14.23;;;-2.10;99.90;;;;;;5069863;28;20062;-66
2022/11/18 11:21:02;;;;;;;31.13;13.90;;;-2.20;99.90;;;;;;5049811;28;20040;-74
2022/11/18 11:23:32;;;;;;;26.40;13.93;;;-2.30;99.90;;;;;;5043099;28;20033;-75
2022/11/18 11:26:06;;;;;;;24.95;13.30;;;-2.30;99.90;;;;;;5042493;28;20027;-67
2022/11/18 11:28:37;;;;;;;29.02;13.18;;;-2.30;99.90;;;;;;5062758;28;20037;-66
2022/11/18 11:31:23;;;;;;;27.07;13.43;;;-2.30;99.90;;;;;;5071940;28;20070;-66
2022/11/18 11:33:58;;;;;;;45.45;26.15;;;-2.30;99.90;;;;;;5071896;28;20301;-74
2022/11/18 11:36:32;;;;;;;36.78;19.65;;;-2.30;99.90;;;;;;5053213;28;20391;-75
2022/11/18 11:39:14;;;;;;;30.50;12.98;;;-2.20;99.90;;;;;;5046554;28;20039;-75
2022/11/18 11:41:46;;;;;;;73.82;31.17;;;-2.20;99.90;;;;;;5044494;28;20009;-75
2022/11/18 11:44:30;;;;;;;35.88;16.17;;;-2.20;99.90;;;;;;5053829;28;20036;-66
2022/11/18 11:50:12;;;;;;;46.25;20.77;;;-2.20;99.90;;;;;;5052921;28;20044;-75
2022/11/18 11:53:13;;;;;;;32.20;16.55;;;-2.10;99.90;;;;;;5045859;28;20030;-67
2022/11/18 11:56:13;;;;;;;30.17;16.48;;;-2.10;99.90;;;;;;5045767;28;20017;-67
2022/11/18 11:58:57;;;;;;;29.98;16.13;;;-2.10;99.90;;;;;;5039047;28;20052;-67
2022/11/18 12:01:35;;;;;;;23.30;11.75;;;-2.20;99.90;;;;;;5041566;28;20021;-67
2022/11/18 12:04:24;;;;;;;34.78;15.68;;;-2.40;99.90;;;;;;5044389;28;20092;-67
2022/11/18 12:06:53;;;;;;;29.85;15.00;;;-2.30;99.90;;;;;;5055797;28;20065;-67
2022/11/18 12:09:31;;;;;;;37.05;16.35;;;-2.30;99.90;;;;;;5071169;28;20040;-67
2022/11/18 12:12:37;;;;;;;24.83;13.25;;;-2.30;99.90;;;;;;5069658;28;20029;-74
2022/11/18 12:15:17;;;;;;;31.02;16.42;;;-2.40;99.90;;;;;;5045398;28;20037;-67
2022/11/18 12:18:13;;;;;;;35.20;16.23;;;-2.30;99.90;;;;;;5067050;28;20074;-74
2022/11/18 12:20:44;;;;;;;29.83;14.32;;;-2.30;99.90;;;;;;5056460;28;20036;-75
2022/11/18 12:23:15;;;;;;;27.48;12.30;;;-2.30;99.90;;;;;;5071425;28;20036;-74
2022/11/18 12:25:46;;;;;;;35.08;17.98;;;-2.40;99.90;;;;;;5069141;28;20028;-73
2022/11/18 12:28:34;;;;;;;27.98;15.60;;;-2.40;99.90;;;;;;5071176;28;20055;-72
2022/11/18 12:31:18;;;;;;;20.40;10.65;;;-2.30;99.90;;;;;;5071269;28;20021;-72
2022/11/18 12:33:48;;;;;;;37.33;19.40;;;-2.30;99.90;;;;;;5070251;28;20028;-65
2022/11/18 12:36:35;;;;;;;29.23;14.48;;;-2.30;99.90;;;;;;5069233;28;20021;-65
2022/11/18 12:39:22;;;;;;;19.65;10.55;;;-2.30;99.90;;;;;;5071098;28;20040;-66
2022/11/18 12:44:43;;;;;;;33.83;16.15;;;-2.40;99.90;;;;;;5075064;28;20044;-66
2022/11/18 12:47:40;;;;;;;31.13;14.25;;;-2.30;99.90;;;;;;5074839;28;20392;-66
2022/11/18 12:50:08;;;;;;;26.42;11.38;;;-2.40;99.90;;;;;;5074432;28;20102;-72
2022/11/18 12:52:34;;;;;;;30.88;13.63;;;-2.40;99.90;;;;;;5075139;28;20032;-72
2022/11/18 12:55:03;;;;;;;24.98;13.32;;;-2.40;99.90;;;;;;5060758;28;20037;-65
2022/11/18 12:57:32;;;;;;;37.13;16.40;;;-2.50;99.90;;;;;;5075047;28;20025;-72
2022/11/18 12:59:58;;;;;;;37.10;15.50;;;-2.40;99.90;;;;;;5074335;28;20470;-72
2022/11/18 13:02:26;;;;;;;32.72;16.00;;;-2.30;99.90;;;;;;5074816;28;20074;-66
2022/11/18 13:05:18;;;;;;;35.40;16.75;;;-2.30;99.90;;;;;;5074402;28;20064;-66
2022/11/18 13:10:36;;;;;;;33.60;15.57;;;-2.20;99.90;;;;;;5074002;28;20447;-72
2022/11/18 13:13:02;;;;;;;32.83;15.57;;;-2.20;99.90;;;;;;5067354;28;20024;-72